Time;durP1;ratioP1;P1;durP2;ratioP2;P2;SDS_P1;SDS_P2;PMS_P1;PMS_P2;Temp;Humidity;BMP_temperature;BMP_pressure;BME280_temperature;BME280_humidity;BME280_pressure;Samples;Min_cycle;Max_cycle;Signal;HPM_P1;HPM_P2
2023/12/14 00:00:51;;;;;;;;;;;;;;;;;;2214386;59;2154;-21
2023/12/14 00:03:22;;;;;;;;;;;;;;;;;;2213612;58;2255;-21
2023/12/14 00:05:52;;;;;;;;;;;;;;;;;;2211651;58;2368;-21
2023/12/14 00:08:22;;;;;;;;;;;;;;;;;;2213538;66;1840;-21
2023/12/14 00:10:52;;;;;;;;;;;;;;;;;;2210437;59;1892;-21
2023/12/14 00:13:23;;;;;;;;;;;;;;;;;;2213051;66;2300;-21
2023/12/14 00:15:53;;;;;;;;;;;;;;;;;;2210621;66;2301;-21
2023/12/14 00:18:23;;;;;;;;;;;;;;;;;;2213972;66;2015;-21
2023/12/14 00:20:53;;;;;;;;;;;;;;;;;;2214947;59;2764;-21
2023/12/14 00:23:24;;;;;;;;;;;;;;;;;;2209407;66;2513;-21
2023/12/14 00:25:54;;;;;;;;;;;;;;;;;;2211322;66;2716;-21
2023/12/14 00:28:24;;;;;;;;;;;;;;;;;;2212765;66;2055;-21
2023/12/14 00:30:54;;;;;;;;;;;;;;;;;;2213876;66;1765;-21
2023/12/14 00:33:25;;;;;;;;;;;;;;;;;;2209673;59;2407;-20
2023/12/14 00:35:55;;;;;;;;;;;;;;;;;;2214126;66;2546;-21
2023/12/14 00:38:25;;;;;;;;;;;;;;;;;;2213249;66;2209;-21
2023/12/14 00:40:55;;;;;;;;;;;;;;;;;;2213939;66;2297;-22
2023/12/14 00:43:25;;;;;;;;;;;;;;;;;;2206097;59;1820;-22
2023/12/14 00:45:56;;;;;;;;;;;;;;;;;;2207690;59;1857;-22
2023/12/14 00:48:26;;;;;;;;;;;;;;;;;;2209562;66;2633;-21
2023/12/14 00:50:56;;;;;;;;;;;;;;;;;;2213503;63;1739;-22
2023/12/14 00:53:26;;;;;;;;;;;;;;;;;;2212300;66;2529;-21
2023/12/14 00:55:57;;;;;;;;;;;;;;;;;;2211085;59;1991;-21
2023/12/14 00:58:27;;;;;;;;;;;;;;;;;;2213594;59;2580;-22
2023/12/14 01:00:57;;;;;;;;;;;;;;;;;;2209593;66;1810;-22
2023/12/14 01:03:27;;;;;;;;;;;;;;;;;;2213829;58;2378;-24
2023/12/14 01:05:58;;;;;;;;;;;;;;;;;;2214131;58;2256;-22
2023/12/14 01:08:28;;;;;;;;;;;;;;;;;;2209970;59;1903;-23
2023/12/14 01:10:58;;;;;;;;;;;;;;;;;;2210482;59;2370;-23
2023/12/14 01:13:28;;;;;;;;;;;;;;;;;;2213632;66;1868;-23
2023/12/14 01:15:58;;;;;;;;;;;;;;;;;;2214195;66;2640;-23
2023/12/14 01:18:29;;;;;;;;;;;;;;;;;;2213481;66;2124;-23
2023/12/14 01:20:59;;;;;;;;;;;;;;;;;;2214142;66;1852;-23
2023/12/14 01:23:29;;;;;;;;;;;;;;;;;;2209175;66;1937;-23
2023/12/14 01:25:59;;;;;;;;;;;;;;;;;;2211223;66;2109;-23
2023/12/14 01:28:29;;;;;;;;;;;;;;;;;;2208961;66;2128;-23
2023/12/14 01:31:00;;;;;;;;;;;;;;;;;;2215007;58;1964;-23
2023/12/14 01:33:30;;;;;;;;;;;;;;;;;;2211865;58;2643;-23
2023/12/14 01:36:00;;;;;;;;;;;;;;;;;;2210272;66;1992;-23
2023/12/14 01:38:30;;;;;;;;;;;;;;;;;;2213150;66;2651;-23
2023/12/14 01:41:01;;;;;;;;;;;;;;;;;;2214231;66;1829;-23
2023/12/14 01:43:31;;;;;;;;;;;;;;;;;;2209000;59;1856;-23
2023/12/14 01:46:01;;;;;;;;;;;;;;;;;;2210898;66;1979;-22
2023/12/14 01:48:31;;;;;;;;;;;;;;;;;;2209212;59;1898;-23
2023/12/14 01:51:02;;;;;;;;;;;;;;;;;;2210192;66;1864;-23
2023/12/14 01:53:32;;;;;;;;;;;;;;;;;;2212516;59;1896;-23
2023/12/14 01:56:02;;;;;;;;;;;;;;;;;;2210745;66;2698;-23
2023/12/14 01:58:32;;;;;;;;;;;;;;;;;;2212138;66;1950;-23
2023/12/14 02:01:03;;;;;;;;;;;;;;;;;;2214477;66;2246;-23
2023/12/14 02:03:33;;;;;;;;;;;;;;;;;;2206350;59;2118;-23
2023/12/14 02:06:03;;;;;;;;;;;;;;;;;;2210313;66;2478;-23
2023/12/14 02:08:33;;;;;;;;;;;;;;;;;;2218878;53;2233;-23
2023/12/14 02:11:04;;;;;;;;;;;;;;;;;;2213643;58;1840;-23
2023/12/14 02:13:34;;;;;;;;;;;;;;;;;;2214114;58;2300;-23
2023/12/14 02:16:05;;;;;;;;;;;;;;;;;;2213995;58;1999;-23
2023/12/14 02:18:35;;;;;;;;;;;;;;;;;;2209994;60;2249;-23
2023/12/14 02:21:05;;;;;;;;;;;;;;;;;;2217455;66;1473;-23
2023/12/14 02:23:41;;;;;;;;;;;;;;;;;;2212899;66;1434;-23
2023/12/14 02:26:12;;;;;;;;;;;;;;;;;;2217909;58;1457;-23
2023/12/14 02:28:42;;;;;;;;;;;;;;;;;;2216722;66;1411;-23
2023/12/14 02:31:13;;;;;;;;;;;;;;;;;;2217751;58;2036;-23
2023/12/14 02:33:43;;;;;;;;;;;;;;;;;;2216754;58;2161;-23
2023/12/14 02:36:13;;;;;;;;;;;;;;;;;;2218011;66;2004;-22
2023/12/14 02:38:43;;;;;;;;;;;;;;;;;;2216762;66;1413;-22
2023/12/14 02:41:13;;;;;;;;;;;;;;;;;;2213620;66;1692;-22
2023/12/14 02:43:44;;;;;;;;;;;;;;;;;;2213356;58;1452;-23
2023/12/14 02:46:15;;;;;;;;;;;;;;;;;;2217586;66;1244;-22
2023/12/14 02:48:45;;;;;;;;;;;;;;;;;;2216716;66;1697;-22
2023/12/14 02:51:15;;;;;;;;;;;;;;;;;;2214418;66;1662;-23
2023/12/14 02:53:46;;;;;;;;;;;;;;;;;;2213732;66;1231;-24
2023/12/14 02:56:16;;;;;;;;;;;;;;;;;;2214261;66;1935;-24
2023/12/14 02:58:51;;;;;;;;;;;;;;;;;;2216932;66;1281;-24
2023/12/14 03:01:21;;;;;;;;;;;;;;;;;;2218218;58;1697;-24
2023/12/14 03:03:51;;;;;;;;;;;;;;;;;;2215860;66;1124;-24
2023/12/14 03:06:22;;;;;;;;;;;;;;;;;;2217706;58;2228;-24
2023/12/14 03:08:53;;;;;;;;;;;;;;;;;;2209646;59;1390;-24
2023/12/14 03:11:24;;;;;;;;;;;;;;;;;;2213260;58;1611;-24
2023/12/14 03:13:55;;;;;;;;;;;;;;;;;;2213939;66;1962;-24
2023/12/14 03:16:25;;;;;;;;;;;;;;;;;;2213208;59;1973;-24
2023/12/14 03:18:56;;;;;;;;;;;;;;;;;;2217900;66;1293;-24
2023/12/14 03:21:27;;;;;;;;;;;;;;;;;;2217109;66;1680;-24
2023/12/14 03:23:57;;;;;;;;;;;;;;;;;;2218903;66;1155;-24
2023/12/14 03:26:27;;;;;;;;;;;;;;;;;;2216481;66;1317;-24
2023/12/14 03:28:57;;;;;;;;;;;;;;;;;;2218191;66;1276;-24
2023/12/14 03:31:27;;;;;;;;;;;;;;;;;;2217097;58;2291;-24
2023/12/14 03:33:58;;;;;;;;;;;;;;;;;;2210843;59;2056;-24
2023/12/14 03:36:28;;;;;;;;;;;;;;;;;;2216782;66;1996;-24
2023/12/14 03:38:58;;;;;;;;;;;;;;;;;;2213379;66;1284;-24
2023/12/14 03:41:28;;;;;;;;;;;;;;;;;;2216754;58;2336;-24
2023/12/14 03:43:59;;;;;;;;;;;;;;;;;;2218282;58;1890;-24
2023/12/14 03:46:29;;;;;;;;;;;;;;;;;;2217645;66;1181;-24
2023/12/14 03:49:00;;;;;;;;;;;;;;;;;;2218914;58;1279;-24
2023/12/14 03:51:30;;;;;;;;;;;;;;;;;;2217290;66;1057;-24
2023/12/14 03:54:00;;;;;;;;;;;;;;;;;;2216941;66;1650;-24
2023/12/14 03:56:31;;;;;;;;;;;;;;;;;;2217785;58;1954;-24
2023/12/14 03:59:01;;;;;;;;;;;;;;;;;;2214463;66;2025;-24
2023/12/14 04:01:31;;;;;;;;;;;;;;;;;;2217596;58;1547;-22
2023/12/14 04:04:01;;;;;;;;;;;;;;;;;;2218043;66;1361;-22
2023/12/14 04:06:32;;;;;;;;;;;;;;;;;;2217634;58;2263;-22
2023/12/14 04:09:02;;;;;;;;;;;;;;;;;;2217905;58;1654;-22
2023/12/14 04:11:32;;;;;;;;;;;;;;;;;;2218390;58;1462;-22
2023/12/14 04:14:03;;;;;;;;;;;;;;;;;;2218528;58;1653;-22
2023/12/14 04:16:33;;;;;;;;;;;;;;;;;;2218624;66;1947;-22
2023/12/14 04:19:09;;;;;;;;;;;;;;;;;;2212791;66;1465;-22
2023/12/14 04:21:40;;;;;;;;;;;;;;;;;;2215566;58;3666;-22
2023/12/14 04:24:12;;;;;;;;;;;;;;;;;;2219123;59;1734;-22
2023/12/14 04:26:42;;;;;;;;;;;;;;;;;;2216956;58;1986;-22
2023/12/14 04:29:12;;;;;;;;;;;;;;;;;;2219137;58;1283;-22
2023/12/14 04:31:43;;;;;;;;;;;;;;;;;;2214289;58;2174;-22
2023/12/14 04:34:15;;;;;;;;;;;;;;;;;;2219325;59;2285;-23
2023/12/14 04:36:45;;;;;;;;;;;;;;;;;;2212547;66;1215;-22
2023/12/14 04:39:16;;;;;;;;;;;;;;;;;;2214557;66;2006;-22
2023/12/14 04:41:47;;;;;;;;;;;;;;;;;;2217365;58;1943;-22
2023/12/14 04:44:17;;;;;;;;;;;;;;;;;;2218597;58;1286;-22
2023/12/14 04:46:48;;;;;;;;;;;;;;;;;;2218483;66;1699;-22
2023/12/14 04:49:19;;;;;;;;;;;;;;;;;;2218012;58;1507;-22
2023/12/14 04:51:49;;;;;;;;;;;;;;;;;;2217472;66;1441;-22
2023/12/14 04:54:19;;;;;;;;;;;;;;;;;;2212893;66;1933;-22
2023/12/14 04:56:50;;;;;;;;;;;;;;;;;;2217630;66;1205;-25
2023/12/14 04:59:20;;;;;;;;;;;;;;;;;;2218682;58;1636;-22
2023/12/14 05:01:50;;;;;;;;;;;;;;;;;;2220037;58;1431;-23
2023/12/14 05:04:21;;;;;;;;;;;;;;;;;;2214804;58;2398;-22
2023/12/14 05:06:51;;;;;;;;;;;;;;;;;;2217008;58;2321;-22
2023/12/14 05:09:21;;;;;;;;;;;;;;;;;;2213208;59;1805;-22
2023/12/14 05:11:52;;;;;;;;;;;;;;;;;;2218656;58;1545;-22
2023/12/14 05:14:23;;;;;;;;;;;;;;;;;;2218733;58;1919;-24
2023/12/14 05:16:53;;;;;;;;;;;;;;;;;;2218886;58;1310;-24
2023/12/14 05:19:23;;;;;;;;;;;;;;;;;;2219378;66;1296;-24
2023/12/14 05:21:54;;;;;;;;;;;;;;;;;;2211008;59;1441;-24
2023/12/14 05:24:24;;;;;;;;;;;;;;;;;;2220332;66;1675;-24
2023/12/14 05:26:54;;;;;;;;;;;;;;;;;;2218240;58;1264;-25
2023/12/14 05:29:25;;;;;;;;;;;;;;;;;;2213924;66;1506;-24
2023/12/14 05:31:55;;;;;;;;;;;;;;;;;;2215018;58;2252;-24
2023/12/14 05:34:25;;;;;;;;;;;;;;;;;;2219691;66;2617;-24
2023/12/14 05:36:55;;;;;;;;;;;;;;;;;;2217065;58;1541;-24
2023/12/14 05:39:25;;;;;;;;;;;;;;;;;;2215232;66;1761;-24
2023/12/14 05:41:56;;;;;;;;;;;;;;;;;;2217189;66;1472;-24
2023/12/14 05:44:26;;;;;;;;;;;;;;;;;;2218058;66;1710;-23
2023/12/14 05:46:56;;;;;;;;;;;;;;;;;;2216892;58;1798;-23
2023/12/14 05:49:27;;;;;;;;;;;;;;;;;;2215424;59;1782;-24
2023/12/14 05:51:58;;;;;;;;;;;;;;;;;;2214915;58;1927;-24
2023/12/14 05:54:28;;;;;;;;;;;;;;;;;;2218266;66;1957;-24
2023/12/14 05:56:59;;;;;;;;;;;;;;;;;;2218226;66;1232;-24
2023/12/14 05:59:29;;;;;;;;;;;;;;;;;;2217907;66;1332;-23
2023/12/14 06:02:00;;;;;;;;;;;;;;;;;;2218886;58;1315;-24
2023/12/14 06:04:30;;;;;;;;;;;;;;;;;;2217977;66;1305;-24
2023/12/14 06:07:00;;;;;;;;;;;;;;;;;;2217221;58;1315;-23
2023/12/14 06:09:34;;;;;;;;;;;;;;;;;;2218587;58;1511;-23
2023/12/14 06:12:05;;;;;;;;;;;;;;;;;;2218111;66;1936;-24
2023/12/14 06:14:35;;;;;;;;;;;;;;;;;;2214872;66;2010;-24
2023/12/14 06:17:05;;;;;;;;;;;;;;;;;;2216165;58;1942;-24
2023/12/14 06:19:35;;;;;;;;;;;;;;;;;;2217917;58;2396;-24
2023/12/14 06:22:06;;;;;;;;;;;;;;;;;;2216700;66;1698;-24
2023/12/14 06:24:36;;;;;;;;;;;;;;;;;;2216404;58;2297;-24
2023/12/14 06:27:07;;;;;;;;;;;;;;;;;;2217478;58;1871;-24
2023/12/14 06:29:37;;;;;;;;;;;;;;;;;;2216476;58;1359;-23
2023/12/14 06:32:07;;;;;;;;;;;;;;;;;;2217506;58;2127;-23
2023/12/14 06:34:38;;;;;;;;;;;;;;;;;;2217258;58;1957;-24
2023/12/14 06:37:08;;;;;;;;;;;;;;;;;;2217545;66;1504;-23
2023/12/14 06:39:40;;;;;;;;;;;;;;;;;;2217155;66;1545;-23
2023/12/14 06:42:11;;;;;;;;;;;;;;;;;;2217740;58;1301;-23
2023/12/14 06:44:42;;;;;;;;;;;;;;;;;;2216755;58;1252;-23
2023/12/14 06:47:13;;;;;;;;;;;;;;;;;;2213153;58;2153;-23
2023/12/14 06:49:43;;;;;;;;;;;;;;;;;;2212139;58;1445;-23
2023/12/14 06:52:14;;;;;;;;;;;;;;;;;;2211268;59;1361;-23
2023/12/14 06:54:44;;;;;;;;;;;;;;;;;;2212339;66;1952;-23
2023/12/14 06:57:14;;;;;;;;;;;;;;;;;;2214028;58;1655;-23
2023/12/14 06:59:44;;;;;;;;;;;;;;;;;;2217323;58;1715;-23
2023/12/14 07:02:14;;;;;;;;;;;;;;;;;;2218334;58;1398;-23
2023/12/14 07:04:45;;;;;;;;;;;;;;;;;;2217262;66;1724;-23
2023/12/14 07:07:15;;;;;;;;;;;;;;;;;;2218004;58;2376;-23
2023/12/14 07:09:46;;;;;;;;;;;;;;;;;;2217526;58;1904;-23
2023/12/14 07:12:16;;;;;;;;;;;;;;;;;;2214491;66;1663;-23
2023/12/14 07:14:46;;;;;;;;;;;;;;;;;;2215068;58;1951;-23
2023/12/14 07:17:16;;;;;;;;;;;;;;;;;;2210636;66;1293;-23
2023/12/14 07:19:46;;;;;;;;;;;;;;;;;;2214597;58;1656;-23
2023/12/14 07:22:17;;;;;;;;;;;;;;;;;;2218592;66;1286;-23
2023/12/14 07:24:47;;;;;;;;;;;;;;;;;;2217879;58;2177;-23
2023/12/14 07:27:17;;;;;;;;;;;;;;;;;;2218341;58;1557;-23
2023/12/14 07:29:47;;;;;;;;;;;;;;;;;;2216594;58;1427;-23
2023/12/14 07:32:18;;;;;;;;;;;;;;;;;;2218165;58;2138;-23
2023/12/14 07:34:48;;;;;;;;;;;;;;;;;;2217429;58;2010;-24
2023/12/14 07:37:19;;;;;;;;;;;;;;;;;;2218392;66;1139;-24
2023/12/14 07:39:49;;;;;;;;;;;;;;;;;;2216903;66;1546;-24
2023/12/14 07:42:19;;;;;;;;;;;;;;;;;;2214145;59;1209;-24
2023/12/14 07:44:50;;;;;;;;;;;;;;;;;;2217586;66;1124;-24
2023/12/14 07:47:20;;;;;;;;;;;;;;;;;;2217984;66;1198;-24
2023/12/14 07:49:50;;;;;;;;;;;;;;;;;;2217303;66;1547;-24
2023/12/14 07:52:20;;;;;;;;;;;;;;;;;;2218168;66;1173;-24
2023/12/14 07:54:51;;;;;;;;;;;;;;;;;;2217281;66;1934;-24
2023/12/14 07:57:21;;;;;;;;;;;;;;;;;;2214300;66;1686;-24
2023/12/14 07:59:51;;;;;;;;;;;;;;;;;;2211801;58;2107;-24
2023/12/14 08:02:22;;;;;;;;;;;;;;;;;;2217898;58;2026;-24
2023/12/14 08:04:52;;;;;;;;;;;;;;;;;;2217234;58;2172;-23
2023/12/14 08:07:22;;;;;;;;;;;;;;;;;;2214292;58;2255;-23
2023/12/14 08:09:52;;;;;;;;;;;;;;;;;;2208873;53;2633;-27
2023/12/14 08:12:23;;;;;;;;;;;;;;;;;;2206158;59;1884;-27
2023/12/14 08:14:54;;;;;;;;;;;;;;;;;;2200894;59;2097;-27
2023/12/14 08:17:24;;;;;;;;;;;;;;;;;;2202482;59;3177;-27
2023/12/14 08:19:54;;;;;;;;;;;;;;;;;;2207051;59;1882;-27
2023/12/14 08:22:24;;;;;;;;;;;;;;;;;;2206291;59;1927;-27
2023/12/14 08:24:55;;;;;;;;;;;;;;;;;;2205746;67;1922;-27
2023/12/14 08:27:25;;;;;;;;;;;;;;;;;;2202641;59;2473;-27
2023/12/14 08:29:55;;;;;;;;;;;;;;;;;;2204356;59;2354;-27
2023/12/14 08:32:25;;;;;;;;;;;;;;;;;;2202989;59;2240;-27
2023/12/14 08:34:55;;;;;;;;;;;;;;;;;;2207459;59;2187;-27
2023/12/14 08:37:25;;;;;;;;;;;;;;;;;;2206038;59;1913;-26
2023/12/14 08:39:56;;;;;;;;;;;;;;;;;;2203952;59;2048;-27
2023/12/14 08:42:26;;;;;;;;;;;;;;;;;;2203316;59;1820;-27
2023/12/14 08:44:56;;;;;;;;;;;;;;;;;;2204699;59;2262;-27
2023/12/14 08:47:26;;;;;;;;;;;;;;;;;;2206003;67;2846;-27
2023/12/14 08:49:57;;;;;;;;;;;;;;;;;;2204698;67;1899;-27
2023/12/14 08:52:27;;;;;;;;;;;;;;;;;;2204768;67;1719;-27
2023/12/14 08:54:58;;;;;;;;;;;;;;;;;;2206112;59;1937;-27
2023/12/14 08:57:28;;;;;;;;;;;;;;;;;;2205832;67;1916;-27
2023/12/14 08:59:58;;;;;;;;;;;;;;;;;;2204440;59;2239;-27
2023/12/14 09:02:28;;;;;;;;;;;;;;;;;;2206756;59;1988;-26
2023/12/14 09:04:59;;;;;;;;;;;;;;;;;;2204217;59;2049;-26
2023/12/14 09:07:29;;;;;;;;;;;;;;;;;;2206413;59;2348;-26
2023/12/14 09:09:59;;;;;;;;;;;;;;;;;;2204709;59;2155;-26
2023/12/14 09:12:30;;;;;;;;;;;;;;;;;;2202978;59;1870;-26
2023/12/14 09:15:00;;;;;;;;;;;;;;;;;;2204168;59;2418;-27
2023/12/14 09:17:33;;;;;;;;;;;;;;;;;;2205894;59;2352;-27
2023/12/14 09:20:07;;;;;;;;;;;;;;;;;;2205544;59;1837;-26
2023/12/14 09:22:37;;;;;;;;;;;;;;;;;;2206569;67;1953;-26
2023/12/14 09:25:09;;;;;;;;;;;;;;;;;;2205116;59;2140;-26
2023/12/14 09:27:39;;;;;;;;;;;;;;;;;;2207443;59;2495;-27
2023/12/14 09:30:10;;;;;;;;;;;;;;;;;;2204630;59;1965;-26
2023/12/14 09:32:40;;;;;;;;;;;;;;;;;;2205761;59;2151;-27
2023/12/14 09:35:11;;;;;;;;;;;;;;;;;;2205542;67;2020;-26
2023/12/14 09:37:41;;;;;;;;;;;;;;;;;;2206817;59;2157;-26
2023/12/14 09:40:11;;;;;;;;;;;;;;;;;;2202884;59;2289;-27
2023/12/14 09:42:42;;;;;;;;;;;;;;;;;;2208806;59;2047;-27
2023/12/14 09:45:12;;;;;;;;;;;;;;;;;;2204237;59;2043;-27
2023/12/14 09:47:44;;;;;;;;;;;;;;;;;;2206111;59;1888;-27
2023/12/14 09:50:16;;;;;;;;;;;;;;;;;;2200014;59;2437;-26
2023/12/14 09:52:48;;;;;;;;;;;;;;;;;;2204239;59;2207;-26
2023/12/14 09:55:19;;;;;;;;;;;;;;;;;;2205958;67;2008;-26
2023/12/14 09:57:49;;;;;;;;;;;;;;;;;;2205644;59;1799;-26
2023/12/14 10:00:41;;;;;;;;;;;;;;;;;;2204688;59;1796;-27
2023/12/14 10:03:26;;;;;;;;;;;;;;;;;;2204961;59;2101;-26
2023/12/14 10:05:56;;;;;;;;;;;;;;;;;;2205932;59;2275;-27
2023/12/14 10:08:27;;;;;;;;;;;;;;;;;;2206706;59;2306;-26
2023/12/14 10:10:57;;;;;;;;;;;;;;;;;;2205682;59;2253;-27
2023/12/14 10:13:38;;;;;;;;;;;;;;;;;;2206276;63;1921;-26
2023/12/14 10:16:08;;;;;;;;;;;;;;;;;;2205544;59;2083;-26
2023/12/14 10:18:39;;;;;;;;;;;;;;;;;;2202951;59;2219;-26
2023/12/14 10:21:10;;;;;;;;;;;;;;;;;;2202193;59;2254;-26
2023/12/14 10:23:40;;;;;;;;;;;;;;;;;;2206669;67;1844;-27
2023/12/14 10:26:10;;;;;;;;;;;;;;;;;;2205966;59;1842;-27
2023/12/14 10:28:41;;;;;;;;;;;;;;;;;;2204792;67;1876;-26
2023/12/14 10:31:11;;;;;;;;;;;;;;;;;;2204772;59;2084;-26
2023/12/14 10:33:41;;;;;;;;;;;;;;;;;;2202319;59;2121;-27
2023/12/14 10:36:13;;;;;;;;;;;;;;;;;;2205363;64;1999;-27
2023/12/14 10:38:44;;;;;;;;;;;;;;;;;;2207318;67;1942;-27
2023/12/14 10:41:17;;;;;;;;;;;;;;;;;;2207884;67;1852;-27
2023/12/14 10:43:48;;;;;;;;;;;;;;;;;;2211596;66;2172;-27
2023/12/14 10:46:19;;;;;;;;;;;;;;;;;;2207986;67;2394;-27
2023/12/14 10:48:49;;;;;;;;;;;;;;;;;;2204704;67;2633;-27
2023/12/14 10:51:21;;;;;;;;;;;;;;;;;;2206270;59;2598;-27
2023/12/14 10:53:51;;;;;;;;;;;;;;;;;;2206674;67;2969;-27
2023/12/14 10:56:22;;;;;;;;;;;;;;;;;;2208002;59;2005;-27
2023/12/14 10:58:54;;;;;;;;;;;;;;;;;;2208738;67;2350;-27
2023/12/14 11:01:24;;;;;;;;;;;;;;;;;;2207163;59;1810;-27
2023/12/14 11:03:56;;;;;;;;;;;;;;;;;;2202630;66;2459;-27
2023/12/14 11:06:29;;;;;;;;;;;;;;;;;;2206593;59;2339;-27
2023/12/14 11:09:00;;;;;;;;;;;;;;;;;;2205199;59;2504;-27
2023/12/14 11:11:39;;;;;;;;;;;;;;;;;;2205846;59;1856;-27
2023/12/14 11:14:13;;;;;;;;;;;;;;;;;;2203980;59;2575;-27
2023/12/14 11:16:46;;;;;;;;;;;;;;;;;;2201807;67;2183;-27
2023/12/14 11:19:22;;;;;;;;;;;;;;;;;;2204577;59;2108;-27
2023/12/14 11:22:05;;;;;;;;;;;;;;;;;;2204440;59;2109;-27
2023/12/14 11:24:35;;;;;;;;;;;;;;;;;;2205590;59;1825;-27
2023/12/14 11:27:09;;;;;;;;;;;;;;;;;;2201980;59;2266;-27
2023/12/14 11:29:41;;;;;;;;;;;;;;;;;;2205967;59;1900;-26
2023/12/14 11:32:12;;;;;;;;;;;;;;;;;;2204793;59;2201;-26
2023/12/14 11:34:42;;;;;;;;;;;;;;;;;;2208266;66;1965;-26
2023/12/14 11:37:12;;;;;;;;;;;;;;;;;;2203730;67;2196;-26
2023/12/14 11:39:43;;;;;;;;;;;;;;;;;;2205279;59;1902;-26
2023/12/14 11:42:18;;;;;;;;;;;;;;;;;;2206947;59;2623;-26
2023/12/14 11:44:48;;;;;;;;;;;;;;;;;;2202506;67;2122;-26
2023/12/14 11:47:18;;;;;;;;;;;;;;;;;;2208370;66;2357;-26
2023/12/14 11:49:48;;;;;;;;;;;;;;;;;;2200863;59;1731;-26
2023/12/14 11:52:19;;;;;;;;;;;;;;;;;;2200099;67;3181;-26
2023/12/14 11:54:49;;;;;;;;;;;;;;;;;;2206090;59;2470;-26
2023/12/14 11:57:19;;;;;;;;;;;;;;;;;;2206222;67;1869;-26
2023/12/14 11:59:50;;;;;;;;;;;;;;;;;;2207049;67;1923;-26
2023/12/14 12:02:24;;;;;;;;;;;;;;;;;;2205297;59;2617;-26
2023/12/14 12:04:55;;;;;;;;;;;;;;;;;;2205098;67;2545;-26
2023/12/14 12:07:25;;;;;;;;;;;;;;;;;;2206573;59;2414;-26
2023/12/14 12:09:55;;;;;;;;;;;;;;;;;;2205434;59;1728;-26
2023/12/14 12:12:26;;;;;;;;;;;;;;;;;;2206273;67;2279;-26
2023/12/14 12:14:56;;;;;;;;;;;;;;;;;;2204796;59;2111;-26
2023/12/14 12:17:26;;;;;;;;;;;;;;;;;;2205611;67;2133;-25
2023/12/14 12:19:56;;;;;;;;;;;;;;;;;;2208081;66;2531;-26
2023/12/14 12:22:27;;;;;;;;;;;;;;;;;;2206466;67;1770;-26
2023/12/14 12:24:58;;;;;;;;;;;;;;;;;;2205592;59;1848;-26
2023/12/14 12:27:28;;;;;;;;;;;;;;;;;;2206302;67;1883;-26
2023/12/14 12:29:58;;;;;;;;;;;;;;;;;;2205600;59;2135;-26
2023/12/14 12:32:29;;;;;;;;;;;;;;;;;;2205204;59;2356;-26
2023/12/14 12:34:59;;;;;;;;;;;;;;;;;;2208270;62;2236;-25
2023/12/14 12:37:29;;;;;;;;;;;;;;;;;;2205843;67;1972;-26
2023/12/14 12:39:59;;;;;;;;;;;;;;;;;;2202069;67;2122;-26
2023/12/14 12:42:29;;;;;;;;;;;;;;;;;;2202408;60;2100;-26
2023/12/14 12:45:00;;;;;;;;;;;;;;;;;;2202053;67;1935;-26
2023/12/14 12:47:30;;;;;;;;;;;;;;;;;;2205969;67;2121;-26
2023/12/14 12:50:00;;;;;;;;;;;;;;;;;;2205214;67;2126;-26
2023/12/14 12:52:31;;;;;;;;;;;;;;;;;;2205134;59;2106;-26
2023/12/14 12:55:02;;;;;;;;;;;;;;;;;;2205213;59;3374;-26
2023/12/14 12:57:32;;;;;;;;;;;;;;;;;;2206209;67;1829;-26
2023/12/14 13:00:04;;;;;;;;;;;;;;;;;;2205311;67;1932;-26
2023/12/14 13:02:34;;;;;;;;;;;;;;;;;;2206146;59;1764;-26
2023/12/14 13:05:05;;;;;;;;;;;;;;;;;;2205191;67;2485;-26
2023/12/14 13:07:36;;;;;;;;;;;;;;;;;;2206306;59;2371;-26
2023/12/14 13:10:07;;;;;;;;;;;;;;;;;;2204721;59;2041;-25
2023/12/14 13:12:37;;;;;;;;;;;;;;;;;;2202949;67;1838;-26
2023/12/14 13:15:07;;;;;;;;;;;;;;;;;;2205038;59;2012;-26
2023/12/14 13:17:37;;;;;;;;;;;;;;;;;;2203965;59;2418;-27
2023/12/14 13:20:08;;;;;;;;;;;;;;;;;;2204482;59;2376;-26
2023/12/14 13:22:39;;;;;;;;;;;;;;;;;;2201714;59;1993;-25
2023/12/14 13:25:09;;;;;;;;;;;;;;;;;;2203608;59;2410;-26
2023/12/14 13:27:40;;;;;;;;;;;;;;;;;;2206128;59;1923;-26
2023/12/14 13:30:11;;;;;;;;;;;;;;;;;;2206271;59;1787;-26
2023/12/14 13:32:41;;;;;;;;;;;;;;;;;;2205170;59;2194;-26
2023/12/14 13:35:11;;;;;;;;;;;;;;;;;;2208089;59;2435;-26
2023/12/14 13:37:41;;;;;;;;;;;;;;;;;;2203414;67;2292;-26
2023/12/14 13:40:12;;;;;;;;;;;;;;;;;;2205657;67;1978;-26
2023/12/14 13:42:43;;;;;;;;;;;;;;;;;;2205480;59;1752;-26
2023/12/14 13:45:13;;;;;;;;;;;;;;;;;;2205538;59;2214;-26
2023/12/14 13:47:43;;;;;;;;;;;;;;;;;;2207889;60;2255;-26
2023/12/14 13:50:14;;;;;;;;;;;;;;;;;;2204571;59;2358;-26
2023/12/14 13:52:44;;;;;;;;;;;;;;;;;;2201656;67;2465;-26
2023/12/14 13:55:14;;;;;;;;;;;;;;;;;;2204025;59;2967;-26
2023/12/14 13:57:45;;;;;;;;;;;;;;;;;;2205660;59;1760;-26
2023/12/14 14:00:16;;;;;;;;;;;;;;;;;;2201992;59;2023;-26
2023/12/14 14:02:46;;;;;;;;;;;;;;;;;;2205539;67;1876;-26
2023/12/14 14:05:16;;;;;;;;;;;;;;;;;;2205725;59;2593;-26
2023/12/14 14:07:47;;;;;;;;;;;;;;;;;;2205274;59;2443;-26
2023/12/14 14:10:17;;;;;;;;;;;;;;;;;;2210414;53;2277;-20
2023/12/14 14:12:48;;;;;;;;;;;;;;;;;;2208211;59;2612;-20
2023/12/14 14:15:19;;;;;;;;;;;;;;;;;;2208312;59;2300;-20
2023/12/14 14:17:51;;;;;;;;;;;;;;;;;;2205291;59;1863;-21
2023/12/14 14:20:23;;;;;;;;;;;;;;;;;;2207802;59;2196;-21
2023/12/14 14:22:54;;;;;;;;;;;;;;;;;;2205191;59;2295;-21
2023/12/14 14:25:25;;;;;;;;;;;;;;;;;;2208735;59;1856;-20
2023/12/14 14:27:55;;;;;;;;;;;;;;;;;;2209624;59;2087;-21
2023/12/14 14:30:25;;;;;;;;;;;;;;;;;;2208249;59;1839;-21
2023/12/14 14:32:56;;;;;;;;;;;;;;;;;;2209929;59;2020;-20
2023/12/14 14:35:27;;;;;;;;;;;;;;;;;;2208668;67;1937;-20
2023/12/14 14:37:57;;;;;;;;;;;;;;;;;;2209938;59;2282;-21
2023/12/14 14:40:27;;;;;;;;;;;;;;;;;;2208613;67;2635;-20
2023/12/14 14:42:58;;;;;;;;;;;;;;;;;;2209732;67;1798;-21
2023/12/14 14:45:28;;;;;;;;;;;;;;;;;;2208960;59;2393;-21
2023/12/14 14:47:59;;;;;;;;;;;;;;;;;;2209772;59;2241;-21
2023/12/14 14:50:29;;;;;;;;;;;;;;;;;;2207931;59;2226;-21
2023/12/14 14:53:02;;;;;;;;;;;;;;;;;;2209388;59;2146;-21
2023/12/14 14:55:33;;;;;;;;;;;;;;;;;;2208529;59;3333;-21
2023/12/14 14:58:03;;;;;;;;;;;;;;;;;;2206314;59;2385;-21
2023/12/14 15:00:38;;;;;;;;;;;;;;;;;;2208469;59;1959;-22
2023/12/14 15:03:09;;;;;;;;;;;;;;;;;;2204505;59;2267;-20
2023/12/14 15:05:39;;;;;;;;;;;;;;;;;;2205617;59;3203;-20
2023/12/14 15:08:10;;;;;;;;;;;;;;;;;;2205264;59;2622;-21
2023/12/14 15:10:40;;;;;;;;;;;;;;;;;;2207845;59;1998;-21
2023/12/14 15:13:10;;;;;;;;;;;;;;;;;;2208359;59;2227;-20
2023/12/14 15:15:40;;;;;;;;;;;;;;;;;;2204927;59;1926;-21
2023/12/14 15:18:11;;;;;;;;;;;;;;;;;;2204552;67;1749;-21
2023/12/14 15:20:42;;;;;;;;;;;;;;;;;;2208085;67;1844;-20
2023/12/14 15:23:12;;;;;;;;;;;;;;;;;;2208440;59;2277;-21
2023/12/14 15:25:42;;;;;;;;;;;;;;;;;;2209155;67;2114;-21
2023/12/14 15:28:12;;;;;;;;;;;;;;;;;;2202207;59;2460;-21
2023/12/14 15:30:43;;;;;;;;;;;;;;;;;;2205644;67;1855;-21
2023/12/14 15:33:13;;;;;;;;;;;;;;;;;;2209325;59;2076;-21
2023/12/14 15:35:44;;;;;;;;;;;;;;;;;;2205701;59;2740;-21
2023/12/14 15:38:14;;;;;;;;;;;;;;;;;;2206027;67;1900;-21
2023/12/14 15:40:44;;;;;;;;;;;;;;;;;;2209477;59;1907;-21
2023/12/14 15:43:15;;;;;;;;;;;;;;;;;;2209043;59;1698;-21
2023/12/14 15:45:45;;;;;;;;;;;;;;;;;;2209729;59;1923;-21
2023/12/14 15:48:15;;;;;;;;;;;;;;;;;;2209757;59;1794;-21
2023/12/14 15:50:46;;;;;;;;;;;;;;;;;;2206196;59;3487;-21
2023/12/14 15:53:16;;;;;;;;;;;;;;;;;;2209758;59;1801;-20
2023/12/14 15:55:46;;;;;;;;;;;;;;;;;;2206225;59;2761;-20
2023/12/14 15:58:16;;;;;;;;;;;;;;;;;;2205218;59;2881;-21
2023/12/14 16:00:47;;;;;;;;;;;;;;;;;;2202941;59;1909;-21
2023/12/14 16:03:17;;;;;;;;;;;;;;;;;;2203558;59;2689;-20
2023/12/14 16:05:47;;;;;;;;;;;;;;;;;;2205768;59;2263;-20
2023/12/14 16:08:18;;;;;;;;;;;;;;;;;;2204987;59;2803;-20
2023/12/14 16:10:50;;;;;;;;;;;;;;;;;;2209351;59;1852;-20
2023/12/14 16:13:21;;;;;;;;;;;;;;;;;;2208901;67;1857;-20
2023/12/14 16:15:51;;;;;;;;;;;;;;;;;;2205867;59;2205;-21
2023/12/14 16:18:22;;;;;;;;;;;;;;;;;;2207842;59;2328;-21
2023/12/14 16:20:52;;;;;;;;;;;;;;;;;;2204926;59;2915;-21
2023/12/14 16:23:22;;;;;;;;;;;;;;;;;;2204215;59;2530;-21
2023/12/14 16:25:53;;;;;;;;;;;;;;;;;;2207796;59;1762;-20
2023/12/14 16:28:23;;;;;;;;;;;;;;;;;;2203506;59;2625;-21
2023/12/14 16:30:53;;;;;;;;;;;;;;;;;;2205114;59;2555;-21
2023/12/14 16:33:23;;;;;;;;;;;;;;;;;;2207909;59;2371;-21
2023/12/14 16:35:54;;;;;;;;;;;;;;;;;;2205884;59;1939;-20
2023/12/14 16:38:24;;;;;;;;;;;;;;;;;;2209356;67;2430;-20
2023/12/14 16:40:54;;;;;;;;;;;;;;;;;;2208629;59;2462;-21
2023/12/14 16:43:25;;;;;;;;;;;;;;;;;;2208866;59;2602;-20
2023/12/14 16:45:55;;;;;;;;;;;;;;;;;;2209332;59;1691;-20
2023/12/14 16:48:26;;;;;;;;;;;;;;;;;;2204604;59;1894;-20
2023/12/14 16:50:56;;;;;;;;;;;;;;;;;;2209380;59;2685;-20
2023/12/14 16:53:26;;;;;;;;;;;;;;;;;;2206859;59;2451;-21
2023/12/14 16:56:00;;;;;;;;;;;;;;;;;;2208880;59;2638;-20
2023/12/14 16:58:34;;;;;;;;;;;;;;;;;;2207277;59;3368;-20
2023/12/14 17:01:05;;;;;;;;;;;;;;;;;;2208626;59;1792;-20
2023/12/14 17:03:35;;;;;;;;;;;;;;;;;;2208372;67;2061;-21
2023/12/14 17:06:13;;;;;;;;;;;;;;;;;;2209996;59;2528;-21
2023/12/14 17:08:43;;;;;;;;;;;;;;;;;;2205648;59;1858;-22
2023/12/14 17:11:14;;;;;;;;;;;;;;;;;;2208221;59;2776;-21
2023/12/14 17:13:44;;;;;;;;;;;;;;;;;;2209610;59;2711;-21
2023/12/14 17:16:18;;;;;;;;;;;;;;;;;;2208334;59;2048;-22
2023/12/14 17:18:49;;;;;;;;;;;;;;;;;;2208707;59;2841;-20
2023/12/14 17:21:20;;;;;;;;;;;;;;;;;;2209223;59;2426;-20
2023/12/14 17:23:51;;;;;;;;;;;;;;;;;;2206055;59;2804;-21
2023/12/14 17:26:22;;;;;;;;;;;;;;;;;;2208453;67;2161;-21